sensor_id;sensor_type;location;lat;lon;timestamp;P1;durP1;ratioP1;P2;durP2;ratioP2
78322;SDS011;67583;50.616;-3.404;2023-11-18T00:02:24;6.97;;;1.92;;
78322;SDS011;67583;50.616;-3.404;2023-11-18T00:04:50;7.32;;;2.10;;
78322;SDS011;67583;50.616;-3.404;2023-11-18T00:07:16;8.10;;;2.30;;
78322;SDS011;67583;50.616;-3.404;2023-11-18T00:09:42;10.90;;;2.10;;
78322;SDS011;67583;50.616;-3.404;2023-11-18T00:12:10;8.18;;;1.83;;
78322;SDS011;67583;50.616;-3.404;2023-11-18T00:14:36;8.88;;;1.73;;
78322;SDS011;67583;50.616;-3.404;2023-11-18T00:17:02;11.93;;;2.63;;
78322;SDS011;67583;50.616;-3.404;2023-11-18T00:19:27;9.40;;;2.38;;
78322;SDS011;67583;50.616;-3.404;2023-11-18T00:21:53;13.02;;;2.58;;
78322;SDS011;67583;50.616;-3.404;2023-11-18T00:24:18;7.38;;;1.88;;
78322;SDS011;67583;50.616;-3.404;2023-11-18T00:26:43;11.93;;;2.30;;
78322;SDS011;67583;50.616;-3.404;2023-11-18T00:29:09;8.43;;;2.08;;
78322;SDS011;67583;50.616;-3.404;2023-11-18T00:31:34;14.23;;;2.58;;
78322;SDS011;67583;50.616;-3.404;2023-11-18T00:34:00;13.50;;;2.00;;
78322;SDS011;67583;50.616;-3.404;2023-11-18T00:36:25;14.23;;;2.10;;
78322;SDS011;67583;50.616;-3.404;2023-11-18T00:38:51;15.73;;;3.47;;
78322;SDS011;67583;50.616;-3.404;2023-11-18T00:41:17;7.97;;;2.15;;
78322;SDS011;67583;50.616;-3.404;2023-11-18T00:43:42;11.32;;;2.03;;
78322;SDS011;67583;50.616;-3.404;2023-11-18T00:46:07;13.75;;;3.00;;
78322;SDS011;67583;50.616;-3.404;2023-11-18T00:48:33;15.15;;;3.47;;
78322;SDS011;67583;50.616;-3.404;2023-11-18T00:50:58;10.68;;;2.10;;
78322;SDS011;67583;50.616;-3.404;2023-11-18T00:53:23;9.02;;;1.92;;
78322;SDS011;67583;50.616;-3.404;2023-11-18T00:55:49;14.40;;;3.15;;
78322;SDS011;67583;50.616;-3.404;2023-11-18T00:58:14;13.02;;;3.28;;
78322;SDS011;67583;50.616;-3.404;2023-11-18T01:00:40;14.07;;;2.30;;
78322;SDS011;67583;50.616;-3.404;2023-11-18T01:03:05;13.65;;;2.03;;
78322;SDS011;67583;50.616;-3.404;2023-11-18T01:05:31;15.50;;;2.08;;
78322;SDS011;67583;50.616;-3.404;2023-11-18T01:07:56;14.60;;;2.60;;
78322;SDS011;67583;50.616;-3.404;2023-11-18T01:10:24;16.27;;;2.30;;
78322;SDS011;67583;50.616;-3.404;2023-11-18T01:12:50;11.55;;;2.17;;
78322;SDS011;67583;50.616;-3.404;2023-11-18T01:15:15;9.57;;;2.25;;
78322;SDS011;67583;50.616;-3.404;2023-11-18T01:17:40;11.65;;;2.30;;
78322;SDS011;67583;50.616;-3.404;2023-11-18T01:20:06;11.27;;;2.33;;
78322;SDS011;67583;50.616;-3.404;2023-11-18T01:22:36;8.60;;;1.70;;
78322;SDS011;67583;50.616;-3.404;2023-11-18T01:25:03;7.47;;;1.50;;
78322;SDS011;67583;50.616;-3.404;2023-11-18T01:27:29;7.43;;;2.20;;
78322;SDS011;67583;50.616;-3.404;2023-11-18T01:29:55;7.03;;;1.58;;
78322;SDS011;67583;50.616;-3.404;2023-11-18T01:32:20;6.80;;;1.88;;
78322;SDS011;67583;50.616;-3.404;2023-11-18T01:34:45;7.22;;;1.92;;
78322;SDS011;67583;50.616;-3.404;2023-11-18T01:37:15;11.98;;;4.13;;
78322;SDS011;67583;50.616;-3.404;2023-11-18T01:39:41;11.57;;;2.40;;
78322;SDS011;67583;50.616;-3.404;2023-11-18T01:42:06;7.35;;;2.05;;
78322;SDS011;67583;50.616;-3.404;2023-11-18T01:44:32;9.95;;;2.00;;
78322;SDS011;67583;50.616;-3.404;2023-11-18T01:46:58;7.30;;;1.52;;
78322;SDS011;67583;50.616;-3.404;2023-11-18T01:49:25;9.63;;;2.13;;
78322;SDS011;67583;50.616;-3.404;2023-11-18T01:51:52;15.00;;;2.67;;
78322;SDS011;67583;50.616;-3.404;2023-11-18T01:54:17;12.73;;;2.85;;
78322;SDS011;67583;50.616;-3.404;2023-11-18T01:56:46;10.52;;;2.13;;
78322;SDS011;67583;50.616;-3.404;2023-11-18T01:59:12;13.02;;;2.35;;
78322;SDS011;67583;50.616;-3.404;2023-11-18T02:01:51;15.00;;;2.95;;
78322;SDS011;67583;50.616;-3.404;2023-11-18T02:04:18;6.07;;;1.80;;
78322;SDS011;67583;50.616;-3.404;2023-11-18T02:06:45;9.57;;;1.98;;
78322;SDS011;67583;50.616;-3.404;2023-11-18T02:09:11;15.18;;;1.92;;
78322;SDS011;67583;50.616;-3.404;2023-11-18T02:11:39;10.23;;;1.60;;
78322;SDS011;67583;50.616;-3.404;2023-11-18T02:14:09;14.30;;;3.85;;
78322;SDS011;67583;50.616;-3.404;2023-11-18T02:16:38;14.98;;;2.67;;
78322;SDS011;67583;50.616;-3.404;2023-11-18T02:19:21;15.82;;;3.28;;
78322;SDS011;67583;50.616;-3.404;2023-11-18T02:21:49;6.55;;;1.70;;
78322;SDS011;67583;50.616;-3.404;2023-11-18T02:26:52;17.73;;;2.58;;
78322;SDS011;67583;50.616;-3.404;2023-11-18T02:29:18;13.55;;;2.10;;
78322;SDS011;67583;50.616;-3.404;2023-11-18T02:31:43;9.23;;;2.00;;
78322;SDS011;67583;50.616;-3.404;2023-11-18T02:34:13;7.78;;;2.17;;
78322;SDS011;67583;50.616;-3.404;2023-11-18T02:36:43;7.93;;;2.00;;
78322;SDS011;67583;50.616;-3.404;2023-11-18T02:39:30;11.30;;;2.00;;
78322;SDS011;67583;50.616;-3.404;2023-11-18T02:42:01;15.20;;;2.60;;
78322;SDS011;67583;50.616;-3.404;2023-11-18T02:44:28;10.57;;;2.70;;
78322;SDS011;67583;50.616;-3.404;2023-11-18T02:46:54;11.25;;;2.40;;
78322;SDS011;67583;50.616;-3.404;2023-11-18T02:49:20;15.30;;;2.83;;
78322;SDS011;67583;50.616;-3.404;2023-11-18T02:51:45;23.58;;;3.05;;
78322;SDS011;67583;50.616;-3.404;2023-11-18T02:54:12;19.52;;;4.38;;
78322;SDS011;67583;50.616;-3.404;2023-11-18T02:56:38;16.83;;;3.40;;
78322;SDS011;67583;50.616;-3.404;2023-11-18T02:59:04;17.55;;;2.65;;
78322;SDS011;67583;50.616;-3.404;2023-11-18T03:01:32;12.70;;;2.70;;
78322;SDS011;67583;50.616;-3.404;2023-11-18T03:04:01;13.63;;;3.53;;
78322;SDS011;67583;50.616;-3.404;2023-11-18T03:06:27;17.10;;;3.60;;
78322;SDS011;67583;50.616;-3.404;2023-11-18T03:08:52;19.23;;;2.85;;
78322;SDS011;67583;50.616;-3.404;2023-11-18T03:11:19;12.93;;;4.20;;
78322;SDS011;67583;50.616;-3.404;2023-11-18T03:13:44;16.95;;;3.75;;
78322;SDS011;67583;50.616;-3.404;2023-11-18T03:16:11;19.38;;;3.80;;
78322;SDS011;67583;50.616;-3.404;2023-11-18T03:18:41;24.85;;;3.95;;
78322;SDS011;67583;50.616;-3.404;2023-11-18T03:21:11;18.77;;;3.92;;
78322;SDS011;67583;50.616;-3.404;2023-11-18T03:23:37;14.43;;;3.50;;
78322;SDS011;67583;50.616;-3.404;2023-11-18T03:26:03;20.92;;;4.53;;
78322;SDS011;67583;50.616;-3.404;2023-11-18T03:28:30;16.02;;;2.78;;
78322;SDS011;67583;50.616;-3.404;2023-11-18T03:30:56;17.13;;;3.55;;
78322;SDS011;67583;50.616;-3.404;2023-11-18T03:33:22;15.20;;;2.90;;
78322;SDS011;67583;50.616;-3.404;2023-11-18T03:35:47;11.30;;;3.22;;
78322;SDS011;67583;50.616;-3.404;2023-11-18T03:38:13;20.48;;;2.70;;
78322;SDS011;67583;50.616;-3.404;2023-11-18T03:40:40;14.65;;;3.70;;
78322;SDS011;67583;50.616;-3.404;2023-11-18T03:43:06;20.45;;;3.42;;
78322;SDS011;67583;50.616;-3.404;2023-11-18T03:45:32;21.02;;;3.90;;
78322;SDS011;67583;50.616;-3.404;2023-11-18T03:47:58;12.18;;;3.75;;
78322;SDS011;67583;50.616;-3.404;2023-11-18T03:50:24;17.52;;;4.53;;
78322;SDS011;67583;50.616;-3.404;2023-11-18T03:52:50;19.58;;;3.25;;
78322;SDS011;67583;50.616;-3.404;2023-11-18T03:55:15;21.40;;;3.97;;
78322;SDS011;67583;50.616;-3.404;2023-11-18T03:57:40;21.42;;;3.78;;
78322;SDS011;67583;50.616;-3.404;2023-11-18T04:00:06;18.10;;;3.65;;
78322;SDS011;67583;50.616;-3.404;2023-11-18T04:02:32;23.88;;;3.65;;
78322;SDS011;67583;50.616;-3.404;2023-11-18T04:04:59;15.20;;;3.40;;
78322;SDS011;67583;50.616;-3.404;2023-11-18T04:07:25;17.30;;;3.00;;
78322;SDS011;67583;50.616;-3.404;2023-11-18T04:09:50;12.45;;;4.22;;
78322;SDS011;67583;50.616;-3.404;2023-11-18T04:12:15;15.18;;;2.80;;
78322;SDS011;67583;50.616;-3.404;2023-11-18T04:14:41;10.02;;;2.90;;
78322;SDS011;67583;50.616;-3.404;2023-11-18T04:17:06;10.88;;;2.53;;
78322;SDS011;67583;50.616;-3.404;2023-11-18T04:19:31;10.65;;;2.33;;
78322;SDS011;67583;50.616;-3.404;2023-11-18T04:21:57;16.05;;;2.83;;
78322;SDS011;67583;50.616;-3.404;2023-11-18T04:24:22;9.43;;;2.83;;
78322;SDS011;67583;50.616;-3.404;2023-11-18T04:26:48;19.45;;;3.90;;
78322;SDS011;67583;50.616;-3.404;2023-11-18T04:29:14;10.30;;;3.15;;
78322;SDS011;67583;50.616;-3.404;2023-11-18T04:31:40;13.00;;;2.85;;
78322;SDS011;67583;50.616;-3.404;2023-11-18T04:34:06;24.90;;;3.17;;
78322;SDS011;67583;50.616;-3.404;2023-11-18T04:36:32;14.65;;;2.92;;
78322;SDS011;67583;50.616;-3.404;2023-11-18T04:38:57;24.10;;;4.07;;
78322;SDS011;67583;50.616;-3.404;2023-11-18T04:41:22;19.90;;;3.38;;
78322;SDS011;67583;50.616;-3.404;2023-11-18T04:43:48;14.20;;;2.97;;
78322;SDS011;67583;50.616;-3.404;2023-11-18T04:46:14;21.65;;;4.18;;
78322;SDS011;67583;50.616;-3.404;2023-11-18T04:48:39;13.60;;;2.90;;
78322;SDS011;67583;50.616;-3.404;2023-11-18T04:51:04;17.08;;;3.45;;
78322;SDS011;67583;50.616;-3.404;2023-11-18T04:53:31;12.20;;;2.97;;
78322;SDS011;67583;50.616;-3.404;2023-11-18T04:55:57;6.85;;;2.20;;
78322;SDS011;67583;50.616;-3.404;2023-11-18T04:58:23;18.10;;;2.50;;
78322;SDS011;67583;50.616;-3.404;2023-11-18T05:00:49;10.60;;;2.65;;
78322;SDS011;67583;50.616;-3.404;2023-11-18T05:03:15;14.45;;;2.42;;
78322;SDS011;67583;50.616;-3.404;2023-11-18T05:05:41;9.85;;;3.90;;
78322;SDS011;67583;50.616;-3.404;2023-11-18T05:08:07;17.50;;;2.85;;
78322;SDS011;67583;50.616;-3.404;2023-11-18T05:10:33;14.75;;;2.90;;
78322;SDS011;67583;50.616;-3.404;2023-11-18T05:12:59;10.10;;;3.10;;
78322;SDS011;67583;50.616;-3.404;2023-11-18T05:15:25;14.52;;;2.97;;
78322;SDS011;67583;50.616;-3.404;2023-11-18T05:17:54;13.35;;;1.95;;
78322;SDS011;67583;50.616;-3.404;2023-11-18T05:20:20;11.95;;;1.90;;
78322;SDS011;67583;50.616;-3.404;2023-11-18T05:22:46;7.13;;;1.67;;
78322;SDS011;67583;50.616;-3.404;2023-11-18T05:25:12;11.02;;;2.78;;
78322;SDS011;67583;50.616;-3.404;2023-11-18T05:27:37;8.57;;;2.78;;
78322;SDS011;67583;50.616;-3.404;2023-11-18T05:30:05;8.32;;;2.25;;
78322;SDS011;67583;50.616;-3.404;2023-11-18T05:32:34;13.20;;;2.90;;
78322;SDS011;67583;50.616;-3.404;2023-11-18T05:34:59;17.23;;;3.13;;
78322;SDS011;67583;50.616;-3.404;2023-11-18T05:37:25;14.25;;;3.55;;
78322;SDS011;67583;50.616;-3.404;2023-11-18T05:39:53;11.32;;;2.92;;
78322;SDS011;67583;50.616;-3.404;2023-11-18T05:42:24;11.10;;;2.60;;
78322;SDS011;67583;50.616;-3.404;2023-11-18T05:44:50;11.23;;;2.85;;
78322;SDS011;67583;50.616;-3.404;2023-11-18T05:47:23;7.50;;;2.20;;
78322;SDS011;67583;50.616;-3.404;2023-11-18T05:49:48;15.63;;;2.65;;
78322;SDS011;67583;50.616;-3.404;2023-11-18T05:52:14;5.00;;;1.85;;
78322;SDS011;67583;50.616;-3.404;2023-11-18T05:54:39;5.13;;;1.60;;
78322;SDS011;67583;50.616;-3.404;2023-11-18T05:57:04;9.27;;;2.00;;
78322;SDS011;67583;50.616;-3.404;2023-11-18T05:59:30;6.15;;;1.40;;
78322;SDS011;67583;50.616;-3.404;2023-11-18T06:01:55;4.63;;;1.23;;
78322;SDS011;67583;50.616;-3.404;2023-11-18T06:04:22;7.32;;;1.60;;
78322;SDS011;67583;50.616;-3.404;2023-11-18T06:06:47;5.13;;;1.88;;
78322;SDS011;67583;50.616;-3.404;2023-11-18T06:09:12;9.05;;;2.10;;
78322;SDS011;67583;50.616;-3.404;2023-11-18T06:11:45;8.88;;;1.95;;
78322;SDS011;67583;50.616;-3.404;2023-11-18T06:14:11;8.00;;;2.35;;
78322;SDS011;67583;50.616;-3.404;2023-11-18T06:16:37;6.15;;;1.75;;
78322;SDS011;67583;50.616;-3.404;2023-11-18T06:19:04;6.20;;;1.77;;
78322;SDS011;67583;50.616;-3.404;2023-11-18T06:21:30;8.32;;;1.70;;
78322;SDS011;67583;50.616;-3.404;2023-11-18T06:23:57;5.40;;;1.73;;
78322;SDS011;67583;50.616;-3.404;2023-11-18T06:26:25;8.57;;;2.13;;
78322;SDS011;67583;50.616;-3.404;2023-11-18T06:28:52;3.22;;;1.55;;
78322;SDS011;67583;50.616;-3.404;2023-11-18T06:31:18;9.25;;;2.10;;
78322;SDS011;67583;50.616;-3.404;2023-11-18T06:33:45;5.82;;;1.85;;
78322;SDS011;67583;50.616;-3.404;2023-11-18T06:38:48;7.60;;;1.52;;
78322;SDS011;67583;50.616;-3.404;2023-11-18T06:41:15;6.50;;;1.90;;
78322;SDS011;67583;50.616;-3.404;2023-11-18T06:43:42;8.20;;;1.48;;
78322;SDS011;67583;50.616;-3.404;2023-11-18T06:46:22;4.55;;;1.50;;
78322;SDS011;67583;50.616;-3.404;2023-11-18T06:48:56;10.63;;;1.80;;
78322;SDS011;67583;50.616;-3.404;2023-11-18T06:51:23;8.57;;;1.35;;
78322;SDS011;67583;50.616;-3.404;2023-11-18T06:53:52;11.82;;;1.75;;
78322;SDS011;67583;50.616;-3.404;2023-11-18T06:56:25;6.43;;;1.55;;
78322;SDS011;67583;50.616;-3.404;2023-11-18T06:58:51;7.30;;;1.63;;
78322;SDS011;67583;50.616;-3.404;2023-11-18T07:01:16;5.60;;;1.50;;
78322;SDS011;67583;50.616;-3.404;2023-11-18T07:03:43;9.38;;;1.55;;
78322;SDS011;67583;50.616;-3.404;2023-11-18T07:06:09;7.97;;;1.50;;
78322;SDS011;67583;50.616;-3.404;2023-11-18T07:08:35;10.68;;;1.83;;
78322;SDS011;67583;50.616;-3.404;2023-11-18T07:11:01;9.93;;;1.60;;
78322;SDS011;67583;50.616;-3.404;2023-11-18T07:13:28;14.30;;;2.85;;
78322;SDS011;67583;50.616;-3.404;2023-11-18T07:15:53;10.35;;;1.98;;
78322;SDS011;67583;50.616;-3.404;2023-11-18T07:18:21;9.52;;;2.97;;
78322;SDS011;67583;50.616;-3.404;2023-11-18T07:20:47;6.35;;;1.33;;
78322;SDS011;67583;50.616;-3.404;2023-11-18T07:23:17;9.98;;;1.60;;
78322;SDS011;67583;50.616;-3.404;2023-11-18T07:25:43;9.95;;;2.08;;
78322;SDS011;67583;50.616;-3.404;2023-11-18T07:28:10;10.70;;;2.30;;
78322;SDS011;67583;50.616;-3.404;2023-11-18T07:30:40;6.13;;;1.85;;
78322;SDS011;67583;50.616;-3.404;2023-11-18T07:33:12;6.18;;;2.55;;
78322;SDS011;67583;50.616;-3.404;2023-11-18T07:35:41;7.80;;;1.40;;
78322;SDS011;67583;50.616;-3.404;2023-11-18T07:38:07;7.82;;;1.58;;
78322;SDS011;67583;50.616;-3.404;2023-11-18T07:40:32;7.10;;;1.88;;
78322;SDS011;67583;50.616;-3.404;2023-11-18T07:42:58;7.40;;;1.45;;
78322;SDS011;67583;50.616;-3.404;2023-11-18T07:45:26;15.63;;;2.20;;
78322;SDS011;67583;50.616;-3.404;2023-11-18T07:47:53;8.82;;;1.42;;
78322;SDS011;67583;50.616;-3.404;2023-11-18T07:50:19;6.20;;;2.22;;
78322;SDS011;67583;50.616;-3.404;2023-11-18T07:52:46;10.25;;;2.92;;
78322;SDS011;67583;50.616;-3.404;2023-11-18T07:55:13;8.18;;;1.80;;
78322;SDS011;67583;50.616;-3.404;2023-11-18T07:57:40;10.50;;;1.80;;
78322;SDS011;67583;50.616;-3.404;2023-11-18T08:00:06;7.75;;;2.17;;
78322;SDS011;67583;50.616;-3.404;2023-11-18T08:02:37;6.20;;;1.40;;
78322;SDS011;67583;50.616;-3.404;2023-11-18T08:05:03;7.80;;;1.30;;
78322;SDS011;67583;50.616;-3.404;2023-11-18T08:07:32;8.30;;;1.42;;
78322;SDS011;67583;50.616;-3.404;2023-11-18T08:10:04;5.43;;;1.85;;
78322;SDS011;67583;50.616;-3.404;2023-11-18T08:12:30;7.20;;;1.88;;
78322;SDS011;67583;50.616;-3.404;2023-11-18T08:14:59;8.40;;;2.30;;
78322;SDS011;67583;50.616;-3.404;2023-11-18T08:17:25;8.05;;;2.03;;
78322;SDS011;67583;50.616;-3.404;2023-11-18T08:19:51;8.35;;;1.50;;
78322;SDS011;67583;50.616;-3.404;2023-11-18T08:22:17;5.07;;;1.50;;
78322;SDS011;67583;50.616;-3.404;2023-11-18T08:24:44;4.55;;;1.67;;
78322;SDS011;67583;50.616;-3.404;2023-11-18T08:27:10;5.68;;;1.50;;
78322;SDS011;67583;50.616;-3.404;2023-11-18T08:29:36;5.47;;;1.60;;
78322;SDS011;67583;50.616;-3.404;2023-11-18T08:32:03;6.93;;;1.38;;
78322;SDS011;67583;50.616;-3.404;2023-11-18T08:34:28;5.50;;;1.40;;
78322;SDS011;67583;50.616;-3.404;2023-11-18T08:36:54;9.07;;;1.52;;
78322;SDS011;67583;50.616;-3.404;2023-11-18T08:39:20;4.18;;;1.50;;
78322;SDS011;67583;50.616;-3.404;2023-11-18T08:41:45;4.25;;;1.10;;
78322;SDS011;67583;50.616;-3.404;2023-11-18T08:44:11;3.20;;;1.25;;
78322;SDS011;67583;50.616;-3.404;2023-11-18T08:46:38;4.13;;;1.45;;
78322;SDS011;67583;50.616;-3.404;2023-11-18T08:49:04;4.07;;;1.67;;
78322;SDS011;67583;50.616;-3.404;2023-11-18T08:51:36;6.10;;;2.03;;
78322;SDS011;67583;50.616;-3.404;2023-11-18T08:54:02;5.13;;;1.80;;
78322;SDS011;67583;50.616;-3.404;2023-11-18T08:56:47;9.45;;;1.42;;
78322;SDS011;67583;50.616;-3.404;2023-11-18T08:59:17;12.15;;;1.60;;
78322;SDS011;67583;50.616;-3.404;2023-11-18T09:01:49;7.03;;;1.88;;
78322;SDS011;67583;50.616;-3.404;2023-11-18T09:04:19;4.55;;;1.40;;
78322;SDS011;67583;50.616;-3.404;2023-11-18T09:06:45;5.13;;;1.70;;
78322;SDS011;67583;50.616;-3.404;2023-11-18T09:09:11;5.40;;;1.95;;
78322;SDS011;67583;50.616;-3.404;2023-11-18T09:11:38;2.80;;;1.00;;
78322;SDS011;67583;50.616;-3.404;2023-11-18T09:14:06;8.25;;;1.50;;
78322;SDS011;67583;50.616;-3.404;2023-11-18T09:16:32;15.93;;;2.97;;
78322;SDS011;67583;50.616;-3.404;2023-11-18T09:19:03;4.35;;;1.70;;
78322;SDS011;67583;50.616;-3.404;2023-11-18T09:21:31;5.10;;;1.90;;
78322;SDS011;67583;50.616;-3.404;2023-11-18T09:24:00;6.88;;;1.83;;
78322;SDS011;67583;50.616;-3.404;2023-11-18T09:26:27;8.75;;;1.88;;
78322;SDS011;67583;50.616;-3.404;2023-11-18T09:28:55;9.10;;;1.70;;
78322;SDS011;67583;50.616;-3.404;2023-11-18T09:31:20;8.70;;;1.60;;
78322;SDS011;67583;50.616;-3.404;2023-11-18T09:33:46;9.15;;;2.33;;
78322;SDS011;67583;50.616;-3.404;2023-11-18T09:36:18;5.75;;;1.80;;
78322;SDS011;67583;50.616;-3.404;2023-11-18T09:38:44;5.15;;;1.70;;
78322;SDS011;67583;50.616;-3.404;2023-11-18T09:41:13;5.35;;;1.80;;
78322;SDS011;67583;50.616;-3.404;2023-11-18T09:43:42;5.60;;;2.10;;
78322;SDS011;67583;50.616;-3.404;2023-11-18T09:46:11;7.78;;;2.03;;
78322;SDS011;67583;50.616;-3.404;2023-11-18T09:48:50;5.40;;;1.77;;
78322;SDS011;67583;50.616;-3.404;2023-11-18T09:51:21;7.10;;;2.40;;
78322;SDS011;67583;50.616;-3.404;2023-11-18T09:53:51;5.47;;;2.03;;
78322;SDS011;67583;50.616;-3.404;2023-11-18T09:59:11;9.15;;;2.22;;
78322;SDS011;67583;50.616;-3.404;2023-11-18T10:01:41;14.32;;;2.28;;
78322;SDS011;67583;50.616;-3.404;2023-11-18T10:04:09;12.20;;;2.72;;
78322;SDS011;67583;50.616;-3.404;2023-11-18T10:06:35;6.40;;;2.10;;
78322;SDS011;67583;50.616;-3.404;2023-11-18T10:09:03;7.95;;;2.45;;
78322;SDS011;67583;50.616;-3.404;2023-11-18T10:11:40;7.05;;;2.40;;
78322;SDS011;67583;50.616;-3.404;2023-11-18T10:14:12;10.88;;;1.75;;
78322;SDS011;67583;50.616;-3.404;2023-11-18T10:16:40;11.07;;;2.55;;
78322;SDS011;67583;50.616;-3.404;2023-11-18T10:19:07;6.28;;;1.90;;
78322;SDS011;67583;50.616;-3.404;2023-11-18T10:21:37;9.55;;;2.75;;
78322;SDS011;67583;50.616;-3.404;2023-11-18T10:24:06;6.75;;;2.38;;
78322;SDS011;67583;50.616;-3.404;2023-11-18T10:26:44;7.43;;;2.38;;
78322;SDS011;67583;50.616;-3.404;2023-11-18T10:29:11;12.18;;;2.92;;
78322;SDS011;67583;50.616;-3.404;2023-11-18T10:31:38;7.57;;;2.47;;
78322;SDS011;67583;50.616;-3.404;2023-11-18T10:36:36;11.30;;;2.47;;
78322;SDS011;67583;50.616;-3.404;2023-11-18T10:39:01;15.65;;;3.22;;
78322;SDS011;67583;50.616;-3.404;2023-11-18T10:41:29;14.50;;;3.03;;
78322;SDS011;67583;50.616;-3.404;2023-11-18T10:44:07;12.88;;;2.33;;
78322;SDS011;67583;50.616;-3.404;2023-11-18T10:46:34;13.90;;;3.85;;
78322;SDS011;67583;50.616;-3.404;2023-11-18T10:49:01;10.70;;;2.50;;
78322;SDS011;67583;50.616;-3.404;2023-11-18T10:51:27;10.95;;;2.10;;
78322;SDS011;67583;50.616;-3.404;2023-11-18T10:53:55;10.60;;;3.50;;
78322;SDS011;67583;50.616;-3.404;2023-11-18T10:56:26;13.15;;;3.55;;
78322;SDS011;67583;50.616;-3.404;2023-11-18T10:59:13;15.65;;;3.67;;
78322;SDS011;67583;50.616;-3.404;2023-11-18T11:01:41;11.57;;;2.95;;
78322;SDS011;67583;50.616;-3.404;2023-11-18T11:04:13;15.75;;;3.05;;
78322;SDS011;67583;50.616;-3.404;2023-11-18T11:06:43;16.15;;;2.92;;
78322;SDS011;67583;50.616;-3.404;2023-11-18T11:09:17;17.83;;;4.15;;
78322;SDS011;67583;50.616;-3.404;2023-11-18T11:11:51;14.07;;;3.53;;
78322;SDS011;67583;50.616;-3.404;2023-11-18T11:14:20;16.00;;;3.83;;
78322;SDS011;67583;50.616;-3.404;2023-11-18T11:16:55;13.95;;;2.80;;
78322;SDS011;67583;50.616;-3.404;2023-11-18T11:21:55;14.40;;;3.17;;
78322;SDS011;67583;50.616;-3.404;2023-11-18T11:27:14;14.68;;;4.15;;
78322;SDS011;67583;50.616;-3.404;2023-11-18T11:29:58;14.48;;;3.53;;
78322;SDS011;67583;50.616;-3.404;2023-11-18T11:32:35;19.40;;;4.32;;
78322;SDS011;67583;50.616;-3.404;2023-11-18T11:35:07;18.42;;;3.80;;
78322;SDS011;67583;50.616;-3.404;2023-11-18T11:37:40;13.18;;;3.50;;
78322;SDS011;67583;50.616;-3.404;2023-11-18T11:40:07;13.65;;;3.50;;
78322;SDS011;67583;50.616;-3.404;2023-11-18T11:42:35;13.60;;;2.80;;
78322;SDS011;67583;50.616;-3.404;2023-11-18T11:45:01;19.45;;;3.88;;
78322;SDS011;67583;50.616;-3.404;2023-11-18T11:47:27;13.30;;;3.40;;
78322;SDS011;67583;50.616;-3.404;2023-11-18T11:50:31;16.00;;;3.83;;
78322;SDS011;67583;50.616;-3.404;2023-11-18T11:52:58;21.77;;;4.05;;
78322;SDS011;67583;50.616;-3.404;2023-11-18T11:55:37;19.05;;;3.88;;
78322;SDS011;67583;50.616;-3.404;2023-11-18T11:58:31;18.23;;;4.28;;
78322;SDS011;67583;50.616;-3.404;2023-11-18T12:03:57;16.05;;;3.55;;
78322;SDS011;67583;50.616;-3.404;2023-11-18T12:06:23;18.65;;;3.63;;
78322;SDS011;67583;50.616;-3.404;2023-11-18T12:08:52;16.80;;;4.03;;
78322;SDS011;67583;50.616;-3.404;2023-11-18T12:11:18;18.70;;;4.45;;
78322;SDS011;67583;50.616;-3.404;2023-11-18T12:14:04;17.23;;;4.03;;
78322;SDS011;67583;50.616;-3.404;2023-11-18T12:17:03;15.52;;;3.67;;
78322;SDS011;67583;50.616;-3.404;2023-11-18T12:19:37;15.13;;;4.30;;
78322;SDS011;67583;50.616;-3.404;2023-11-18T12:22:16;18.10;;;5.18;;
78322;SDS011;67583;50.616;-3.404;2023-11-18T12:24:44;27.25;;;4.72;;
78322;SDS011;67583;50.616;-3.404;2023-11-18T12:27:12;20.90;;;4.38;;
78322;SDS011;67583;50.616;-3.404;2023-11-18T12:29:41;15.23;;;4.30;;
78322;SDS011;67583;50.616;-3.404;2023-11-18T12:32:10;13.38;;;3.95;;
78322;SDS011;67583;50.616;-3.404;2023-11-18T12:34:54;18.95;;;3.90;;
78322;SDS011;67583;50.616;-3.404;2023-11-18T12:42:58;16.95;;;6.00;;
78322;SDS011;67583;50.616;-3.404;2023-11-18T12:48:09;18.02;;;3.40;;
78322;SDS011;67583;50.616;-3.404;2023-11-18T12:50:40;21.77;;;4.22;;
78322;SDS011;67583;50.616;-3.404;2023-11-18T12:53:06;21.65;;;4.43;;
78322;SDS011;67583;50.616;-3.404;2023-11-18T12:55:32;14.25;;;4.32;;
78322;SDS011;67583;50.616;-3.404;2023-11-18T12:58:01;14.75;;;4.57;;
78322;SDS011;67583;50.616;-3.404;2023-11-18T13:00:27;25.65;;;5.13;;
78322;SDS011;67583;50.616;-3.404;2023-11-18T13:02:55;19.90;;;4.03;;
78322;SDS011;67583;50.616;-3.404;2023-11-18T13:05:23;17.77;;;4.00;;
78322;SDS011;67583;50.616;-3.404;2023-11-18T13:07:48;21.98;;;4.68;;
78322;SDS011;67583;50.616;-3.404;2023-11-18T13:10:15;24.08;;;4.60;;
78322;SDS011;67583;50.616;-3.404;2023-11-18T13:12:41;31.02;;;7.05;;
78322;SDS011;67583;50.616;-3.404;2023-11-18T13:15:08;20.52;;;4.35;;
78322;SDS011;67583;50.616;-3.404;2023-11-18T13:17:34;25.88;;;4.75;;
78322;SDS011;67583;50.616;-3.404;2023-11-18T13:20:12;19.20;;;5.13;;
78322;SDS011;67583;50.616;-3.404;2023-11-18T13:22:38;22.67;;;5.35;;
78322;SDS011;67583;50.616;-3.404;2023-11-18T13:25:04;23.10;;;4.57;;
78322;SDS011;67583;50.616;-3.404;2023-11-18T13:27:30;22.25;;;5.20;;
78322;SDS011;67583;50.616;-3.404;2023-11-18T13:29:57;22.15;;;4.75;;
78322;SDS011;67583;50.616;-3.404;2023-11-18T13:32:23;22.52;;;4.97;;
78322;SDS011;67583;50.616;-3.404;2023-11-18T13:34:50;25.83;;;5.13;;
78322;SDS011;67583;50.616;-3.404;2023-11-18T13:37:16;21.38;;;5.68;;
78322;SDS011;67583;50.616;-3.404;2023-11-18T13:39:43;19.42;;;4.05;;
78322;SDS011;67583;50.616;-3.404;2023-11-18T13:42:21;23.58;;;5.35;;
78322;SDS011;67583;50.616;-3.404;2023-11-18T13:44:48;18.27;;;5.10;;
78322;SDS011;67583;50.616;-3.404;2023-11-18T13:47:19;30.92;;;5.18;;
78322;SDS011;67583;50.616;-3.404;2023-11-18T13:49:45;27.95;;;5.55;;
78322;SDS011;67583;50.616;-3.404;2023-11-18T13:52:12;27.60;;;5.00;;
78322;SDS011;67583;50.616;-3.404;2023-11-18T13:54:41;21.33;;;5.40;;
78322;SDS011;67583;50.616;-3.404;2023-11-18T13:57:09;22.08;;;5.55;;
78322;SDS011;67583;50.616;-3.404;2023-11-18T13:59:35;18.13;;;4.40;;
78322;SDS011;67583;50.616;-3.404;2023-11-18T14:02:00;23.30;;;5.25;;
78322;SDS011;67583;50.616;-3.404;2023-11-18T14:04:29;25.20;;;4.70;;
78322;SDS011;67583;50.616;-3.404;2023-11-18T14:06:59;23.50;;;5.55;;
78322;SDS011;67583;50.616;-3.404;2023-11-18T14:09:27;25.50;;;4.90;;
78322;SDS011;67583;50.616;-3.404;2023-11-18T14:11:54;28.55;;;6.57;;
78322;SDS011;67583;50.616;-3.404;2023-11-18T14:14:21;17.55;;;4.88;;
78322;SDS011;67583;50.616;-3.404;2023-11-18T14:16:48;29.13;;;5.68;;
78322;SDS011;67583;50.616;-3.404;2023-11-18T14:19:14;28.10;;;5.57;;
78322;SDS011;67583;50.616;-3.404;2023-11-18T14:21:39;25.75;;;4.72;;
78322;SDS011;67583;50.616;-3.404;2023-11-18T14:24:08;27.23;;;5.13;;
78322;SDS011;67583;50.616;-3.404;2023-11-18T14:26:35;27.30;;;6.53;;
78322;SDS011;67583;50.616;-3.404;2023-11-18T14:29:01;23.77;;;6.00;;
78322;SDS011;67583;50.616;-3.404;2023-11-18T14:31:27;21.90;;;4.38;;
78322;SDS011;67583;50.616;-3.404;2023-11-18T14:33:53;21.25;;;4.47;;
78322;SDS011;67583;50.616;-3.404;2023-11-18T14:36:23;21.00;;;4.05;;
78322;SDS011;67583;50.616;-3.404;2023-11-18T14:38:49;17.77;;;4.28;;
78322;SDS011;67583;50.616;-3.404;2023-11-18T14:41:14;23.38;;;4.30;;
78322;SDS011;67583;50.616;-3.404;2023-11-18T14:43:40;25.95;;;5.97;;
78322;SDS011;67583;50.616;-3.404;2023-11-18T14:46:06;24.55;;;5.22;;
78322;SDS011;67583;50.616;-3.404;2023-11-18T14:48:33;23.27;;;4.63;;
78322;SDS011;67583;50.616;-3.404;2023-11-18T14:50:58;19.40;;;4.28;;
78322;SDS011;67583;50.616;-3.404;2023-11-18T14:53:25;14.57;;;3.72;;
78322;SDS011;67583;50.616;-3.404;2023-11-18T14:55:50;17.92;;;4.70;;
78322;SDS011;67583;50.616;-3.404;2023-11-18T14:58:16;16.40;;;3.60;;